sensor_id;sensor_type;location;lat;lon;timestamp;temperature;humidity
10233;DHT22;5161;48.174;11.756;2023-05-29T00:01:26;17.80;55.60
10233;DHT22;5161;48.174;11.756;2023-05-29T00:03:52;17.80;55.70
10233;DHT22;5161;48.174;11.756;2023-05-29T00:06:19;17.90;55.80
10233;DHT22;5161;48.174;11.756;2023-05-29T00:08:45;17.80;55.70
10233;DHT22;5161;48.174;11.756;2023-05-29T00:11:11;17.80;55.80
10233;DHT22;5161;48.174;11.756;2023-05-29T00:13:36;17.80;55.90
10233;DHT22;5161;48.174;11.756;2023-05-29T00:16:02;17.70;55.90
10233;DHT22;5161;48.174;11.756;2023-05-29T00:18:29;17.70;55.90
10233;DHT22;5161;48.174;11.756;2023-05-29T00:20:54;17.60;56.00
10233;DHT22;5161;48.174;11.756;2023-05-29T00:23:21;17.60;56.10
10233;DHT22;5161;48.174;11.756;2023-05-29T00:25:47;17.60;56.20
10233;DHT22;5161;48.174;11.756;2023-05-29T00:28:12;17.50;56.20
10233;DHT22;5161;48.174;11.756;2023-05-29T00:30:39;17.50;56.70
10233;DHT22;5161;48.174;11.756;2023-05-29T00:33:05;17.40;56.20
10233;DHT22;5161;48.174;11.756;2023-05-29T00:35:30;17.40;56.20
10233;DHT22;5161;48.174;11.756;2023-05-29T00:37:57;17.40;56.30
10233;DHT22;5161;48.174;11.756;2023-05-29T00:40:22;17.30;56.10
10233;DHT22;5161;48.174;11.756;2023-05-29T00:42:48;17.30;56.60
10233;DHT22;5161;48.174;11.756;2023-05-29T00:45:14;17.30;56.20
10233;DHT22;5161;48.174;11.756;2023-05-29T00:47:41;17.30;56.20
10233;DHT22;5161;48.174;11.756;2023-05-29T00:50:08;17.20;56.10
10233;DHT22;5161;48.174;11.756;2023-05-29T00:52:37;17.20;56.20
10233;DHT22;5161;48.174;11.756;2023-05-29T00:55:03;17.20;56.20
10233;DHT22;5161;48.174;11.756;2023-05-29T00:57:29;17.10;56.30
10233;DHT22;5161;48.174;11.756;2023-05-29T00:59:55;17.20;56.40
10233;DHT22;5161;48.174;11.756;2023-05-29T01:02:21;17.20;56.30
10233;DHT22;5161;48.174;11.756;2023-05-29T01:04:48;17.10;56.30
10233;DHT22;5161;48.174;11.756;2023-05-29T01:07:13;17.10;56.50
10233;DHT22;5161;48.174;11.756;2023-05-29T01:09:40;17.00;56.40
10233;DHT22;5161;48.174;11.756;2023-05-29T01:12:23;17.00;56.60
10233;DHT22;5161;48.174;11.756;2023-05-29T01:14:58;17.10;57.00
10233;DHT22;5161;48.174;11.756;2023-05-29T01:22:46;17.00;57.00
10233;DHT22;5161;48.174;11.756;2023-05-29T01:25:23;16.90;57.00
10233;DHT22;5161;48.174;11.756;2023-05-29T01:27:49;16.90;57.00
10233;DHT22;5161;48.174;11.756;2023-05-29T01:30:17;16.90;57.10
10233;DHT22;5161;48.174;11.756;2023-05-29T01:32:44;16.80;57.10
10233;DHT22;5161;48.174;11.756;2023-05-29T01:35:10;16.80;57.10
10233;DHT22;5161;48.174;11.756;2023-05-29T01:37:35;16.80;57.10
10233;DHT22;5161;48.174;11.756;2023-05-29T01:40:01;16.80;57.30
10233;DHT22;5161;48.174;11.756;2023-05-29T01:42:28;16.70;57.20
10233;DHT22;5161;48.174;11.756;2023-05-29T01:44:55;16.70;57.30
10233;DHT22;5161;48.174;11.756;2023-05-29T01:47:22;16.60;57.30
10233;DHT22;5161;48.174;11.756;2023-05-29T01:49:50;16.60;57.50
10233;DHT22;5161;48.174;11.756;2023-05-29T01:52:16;16.60;57.40
10233;DHT22;5161;48.174;11.756;2023-05-29T01:54:43;16.50;57.50
10233;DHT22;5161;48.174;11.756;2023-05-29T01:57:09;16.50;57.20
10233;DHT22;5161;48.174;11.756;2023-05-29T01:59:34;16.50;57.30
10233;DHT22;5161;48.174;11.756;2023-05-29T02:02:09;16.40;57.30
10233;DHT22;5161;48.174;11.756;2023-05-29T02:04:34;16.40;57.50
10233;DHT22;5161;48.174;11.756;2023-05-29T02:07:00;16.40;57.40
10233;DHT22;5161;48.174;11.756;2023-05-29T02:09:26;16.40;57.50
10233;DHT22;5161;48.174;11.756;2023-05-29T02:11:51;16.30;57.40
10233;DHT22;5161;48.174;11.756;2023-05-29T02:14:17;16.30;57.50
10233;DHT22;5161;48.174;11.756;2023-05-29T02:16:43;16.30;57.50
10233;DHT22;5161;48.174;11.756;2023-05-29T02:19:09;16.30;57.70
10233;DHT22;5161;48.174;11.756;2023-05-29T02:21:38;16.20;57.70
10233;DHT22;5161;48.174;11.756;2023-05-29T02:24:04;16.20;57.60
10233;DHT22;5161;48.174;11.756;2023-05-29T02:26:29;16.10;57.70
10233;DHT22;5161;48.174;11.756;2023-05-29T02:28:55;16.10;57.70
10233;DHT22;5161;48.174;11.756;2023-05-29T02:31:21;16.10;57.80
10233;DHT22;5161;48.174;11.756;2023-05-29T02:33:46;16.10;57.80
10233;DHT22;5161;48.174;11.756;2023-05-29T02:36:13;16.10;57.80
10233;DHT22;5161;48.174;11.756;2023-05-29T02:38:39;16.10;57.80
10233;DHT22;5161;48.174;11.756;2023-05-29T02:41:05;16.10;57.80
10233;DHT22;5161;48.174;11.756;2023-05-29T02:43:31;16.10;57.80
10233;DHT22;5161;48.174;11.756;2023-05-29T02:45:56;16.10;57.80
10233;DHT22;5161;48.174;11.756;2023-05-29T02:48:22;16.10;57.80
10233;DHT22;5161;48.174;11.756;2023-05-29T02:50:47;16.00;57.80
10233;DHT22;5161;48.174;11.756;2023-05-29T02:53:13;16.00;58.00
10233;DHT22;5161;48.174;11.756;2023-05-29T02:55:39;16.00;58.00
10233;DHT22;5161;48.174;11.756;2023-05-29T02:58:05;15.90;57.90
10233;DHT22;5161;48.174;11.756;2023-05-29T03:00:30;15.90;57.80
10233;DHT22;5161;48.174;11.756;2023-05-29T03:02:56;15.90;58.00
10233;DHT22;5161;48.174;11.756;2023-05-29T03:05:22;16.00;58.10
10233;DHT22;5161;48.174;11.756;2023-05-29T03:07:47;16.00;58.20
10233;DHT22;5161;48.174;11.756;2023-05-29T03:10:13;16.00;58.20
10233;DHT22;5161;48.174;11.756;2023-05-29T03:12:42;16.00;58.30
10233;DHT22;5161;48.174;11.756;2023-05-29T03:15:09;16.00;58.30
10233;DHT22;5161;48.174;11.756;2023-05-29T03:17:35;16.00;58.40
10233;DHT22;5161;48.174;11.756;2023-05-29T03:20:02;16.00;58.40
10233;DHT22;5161;48.174;11.756;2023-05-29T03:22:31;16.00;58.40
10233;DHT22;5161;48.174;11.756;2023-05-29T03:24:57;15.90;58.30
10233;DHT22;5161;48.174;11.756;2023-05-29T03:27:23;15.90;58.40
10233;DHT22;5161;48.174;11.756;2023-05-29T03:29:48;15.90;58.50
10233;DHT22;5161;48.174;11.756;2023-05-29T03:32:14;15.90;58.50
10233;DHT22;5161;48.174;11.756;2023-05-29T03:34:40;15.80;58.50
10233;DHT22;5161;48.174;11.756;2023-05-29T03:37:05;15.80;58.60
10233;DHT22;5161;48.174;11.756;2023-05-29T03:39:31;15.80;58.60
10233;DHT22;5161;48.174;11.756;2023-05-29T03:41:56;15.80;58.60
10233;DHT22;5161;48.174;11.756;2023-05-29T03:44:22;15.80;58.70
10233;DHT22;5161;48.174;11.756;2023-05-29T03:46:48;15.80;58.80
10233;DHT22;5161;48.174;11.756;2023-05-29T03:49:14;15.80;59.00
10233;DHT22;5161;48.174;11.756;2023-05-29T03:51:39;15.80;59.10
10233;DHT22;5161;48.174;11.756;2023-05-29T03:54:05;15.80;59.20
10233;DHT22;5161;48.174;11.756;2023-05-29T03:56:30;15.80;59.20
10233;DHT22;5161;48.174;11.756;2023-05-29T03:58:56;15.80;59.40
10233;DHT22;5161;48.174;11.756;2023-05-29T04:01:22;15.80;59.60
10233;DHT22;5161;48.174;11.756;2023-05-29T04:03:47;15.80;59.60
10233;DHT22;5161;48.174;11.756;2023-05-29T04:06:13;15.80;59.70
10233;DHT22;5161;48.174;11.756;2023-05-29T04:08:38;15.80;59.60
10233;DHT22;5161;48.174;11.756;2023-05-29T04:11:04;15.80;59.60
10233;DHT22;5161;48.174;11.756;2023-05-29T04:13:30;15.80;59.70
10233;DHT22;5161;48.174;11.756;2023-05-29T04:15:55;15.80;59.80
10233;DHT22;5161;48.174;11.756;2023-05-29T04:18:21;15.90;60.00
10233;DHT22;5161;48.174;11.756;2023-05-29T04:20:46;15.90;60.10
10233;DHT22;5161;48.174;11.756;2023-05-29T04:23:13;15.90;60.10
10233;DHT22;5161;48.174;11.756;2023-05-29T04:25:38;15.90;60.10
10233;DHT22;5161;48.174;11.756;2023-05-29T04:28:04;15.90;60.00
10233;DHT22;5161;48.174;11.756;2023-05-29T04:30:30;15.90;59.90
10233;DHT22;5161;48.174;11.756;2023-05-29T04:32:57;15.90;59.90
10233;DHT22;5161;48.174;11.756;2023-05-29T04:35:24;15.90;59.80
10233;DHT22;5161;48.174;11.756;2023-05-29T04:37:50;15.90;59.80
10233;DHT22;5161;48.174;11.756;2023-05-29T04:40:15;16.00;59.90
10233;DHT22;5161;48.174;11.756;2023-05-29T04:42:43;16.00;59.90
10233;DHT22;5161;48.174;11.756;2023-05-29T04:45:11;16.00;59.70
10233;DHT22;5161;48.174;11.756;2023-05-29T04:47:37;16.00;59.70
10233;DHT22;5161;48.174;11.756;2023-05-29T04:50:17;16.00;59.80
10233;DHT22;5161;48.174;11.756;2023-05-29T04:52:43;16.00;59.70
10233;DHT22;5161;48.174;11.756;2023-05-29T04:55:09;16.10;60.10
10233;DHT22;5161;48.174;11.756;2023-05-29T04:57:36;16.10;59.90
10233;DHT22;5161;48.174;11.756;2023-05-29T05:00:02;16.10;60.00
10233;DHT22;5161;48.174;11.756;2023-05-29T05:02:31;16.10;60.40
10233;DHT22;5161;48.174;11.756;2023-05-29T05:04:57;16.20;59.90
10233;DHT22;5161;48.174;11.756;2023-05-29T05:07:22;16.20;59.80
10233;DHT22;5161;48.174;11.756;2023-05-29T05:09:48;16.20;59.60
10233;DHT22;5161;48.174;11.756;2023-05-29T05:12:14;16.30;59.70
10233;DHT22;5161;48.174;11.756;2023-05-29T05:14:39;16.30;60.50
10233;DHT22;5161;48.174;11.756;2023-05-29T05:17:05;16.30;60.30
10233;DHT22;5161;48.174;11.756;2023-05-29T05:19:30;16.30;60.40
10233;DHT22;5161;48.174;11.756;2023-05-29T05:21:56;16.30;60.60
10233;DHT22;5161;48.174;11.756;2023-05-29T05:24:22;16.30;60.70
10233;DHT22;5161;48.174;11.756;2023-05-29T05:26:47;16.30;60.80
10233;DHT22;5161;48.174;11.756;2023-05-29T05:29:13;16.30;60.70
10233;DHT22;5161;48.174;11.756;2023-05-29T05:31:39;16.30;60.70
10233;DHT22;5161;48.174;11.756;2023-05-29T05:34:04;16.40;60.70
10233;DHT22;5161;48.174;11.756;2023-05-29T05:36:30;16.40;61.40
10233;DHT22;5161;48.174;11.756;2023-05-29T05:38:56;16.40;60.70
10233;DHT22;5161;48.174;11.756;2023-05-29T05:41:22;16.40;60.50
10233;DHT22;5161;48.174;11.756;2023-05-29T05:43:47;16.50;60.40
10233;DHT22;5161;48.174;11.756;2023-05-29T05:46:13;16.50;60.10
10233;DHT22;5161;48.174;11.756;2023-05-29T05:48:40;16.50;60.20
10233;DHT22;5161;48.174;11.756;2023-05-29T05:51:06;16.50;60.20
10233;DHT22;5161;48.174;11.756;2023-05-29T05:53:31;16.50;60.10
10233;DHT22;5161;48.174;11.756;2023-05-29T05:55:57;16.60;60.10
10233;DHT22;5161;48.174;11.756;2023-05-29T05:58:22;16.60;59.90
10233;DHT22;5161;48.174;11.756;2023-05-29T06:00:48;16.60;60.00
10233;DHT22;5161;48.174;11.756;2023-05-29T06:03:17;16.70;60.30
10233;DHT22;5161;48.174;11.756;2023-05-29T06:05:43;16.70;60.30
10233;DHT22;5161;48.174;11.756;2023-05-29T06:08:09;16.70;60.40
10233;DHT22;5161;48.174;11.756;2023-05-29T06:10:34;16.70;60.40
10233;DHT22;5161;48.174;11.756;2023-05-29T06:13:00;16.80;60.70
10233;DHT22;5161;48.174;11.756;2023-05-29T06:15:25;16.90;60.90
10233;DHT22;5161;48.174;11.756;2023-05-29T06:17:51;16.90;60.80
10233;DHT22;5161;48.174;11.756;2023-05-29T06:20:17;16.90;60.80
10233;DHT22;5161;48.174;11.756;2023-05-29T06:22:44;16.90;60.90
10233;DHT22;5161;48.174;11.756;2023-05-29T06:25:16;17.00;61.10
10233;DHT22;5161;48.174;11.756;2023-05-29T06:27:41;17.00;61.40
10233;DHT22;5161;48.174;11.756;2023-05-29T06:30:08;17.00;61.40
10233;DHT22;5161;48.174;11.756;2023-05-29T06:32:33;17.10;61.60
10233;DHT22;5161;48.174;11.756;2023-05-29T06:34:59;17.10;61.60
10233;DHT22;5161;48.174;11.756;2023-05-29T06:37:24;17.20;61.40
10233;DHT22;5161;48.174;11.756;2023-05-29T06:39:50;17.20;61.70
10233;DHT22;5161;48.174;11.756;2023-05-29T06:42:15;17.20;61.70
10233;DHT22;5161;48.174;11.756;2023-05-29T06:44:41;17.30;61.80
10233;DHT22;5161;48.174;11.756;2023-05-29T06:47:07;17.30;61.70
10233;DHT22;5161;48.174;11.756;2023-05-29T06:49:32;17.40;61.70
10233;DHT22;5161;48.174;11.756;2023-05-29T06:51:58;17.40;61.70
10233;DHT22;5161;48.174;11.756;2023-05-29T06:54:24;17.50;61.80
10233;DHT22;5161;48.174;11.756;2023-05-29T06:56:49;17.50;61.70
10233;DHT22;5161;48.174;11.756;2023-05-29T06:59:15;17.60;62.00
10233;DHT22;5161;48.174;11.756;2023-05-29T07:01:40;17.60;62.00
10233;DHT22;5161;48.174;11.756;2023-05-29T07:04:06;17.60;62.00
10233;DHT22;5161;48.174;11.756;2023-05-29T07:06:32;17.70;61.90
10233;DHT22;5161;48.174;11.756;2023-05-29T07:08:59;17.70;62.30
10233;DHT22;5161;48.174;11.756;2023-05-29T07:11:25;17.70;62.10
10233;DHT22;5161;48.174;11.756;2023-05-29T07:13:53;17.80;62.20
10233;DHT22;5161;48.174;11.756;2023-05-29T07:16:18;17.80;61.70
10233;DHT22;5161;48.174;11.756;2023-05-29T07:18:44;17.80;62.20
10233;DHT22;5161;48.174;11.756;2023-05-29T07:21:09;17.90;62.30
10233;DHT22;5161;48.174;11.756;2023-05-29T07:23:35;17.80;61.50
10233;DHT22;5161;48.174;11.756;2023-05-29T07:26:01;17.90;62.10
10233;DHT22;5161;48.174;11.756;2023-05-29T07:28:27;18.00;62.40
10233;DHT22;5161;48.174;11.756;2023-05-29T07:30:52;18.00;62.40
10233;DHT22;5161;48.174;11.756;2023-05-29T07:33:18;18.10;62.30
10233;DHT22;5161;48.174;11.756;2023-05-29T07:35:43;18.20;61.90
10233;DHT22;5161;48.174;11.756;2023-05-29T07:38:09;18.10;62.30
10233;DHT22;5161;48.174;11.756;2023-05-29T07:40:35;18.20;62.20
10233;DHT22;5161;48.174;11.756;2023-05-29T07:43:01;18.30;62.40
10233;DHT22;5161;48.174;11.756;2023-05-29T07:45:27;18.30;62.30
10233;DHT22;5161;48.174;11.756;2023-05-29T07:47:52;18.30;62.60
10233;DHT22;5161;48.174;11.756;2023-05-29T07:50:18;18.40;62.80
10233;DHT22;5161;48.174;11.756;2023-05-29T07:52:43;18.40;63.20
10233;DHT22;5161;48.174;11.756;2023-05-29T07:55:09;18.40;63.00
10233;DHT22;5161;48.174;11.756;2023-05-29T07:57:35;18.50;63.00
10233;DHT22;5161;48.174;11.756;2023-05-29T08:00:01;18.50;63.10
10233;DHT22;5161;48.174;11.756;2023-05-29T08:02:33;18.60;62.90
10233;DHT22;5161;48.174;11.756;2023-05-29T08:04:59;18.60;63.10
10233;DHT22;5161;48.174;11.756;2023-05-29T08:07:25;18.60;62.90
10233;DHT22;5161;48.174;11.756;2023-05-29T08:09:54;18.60;62.80
10233;DHT22;5161;48.174;11.756;2023-05-29T08:12:19;18.70;63.10
10233;DHT22;5161;48.174;11.756;2023-05-29T08:14:45;18.70;63.10
10233;DHT22;5161;48.174;11.756;2023-05-29T08:17:11;18.70;63.10
10233;DHT22;5161;48.174;11.756;2023-05-29T08:19:36;18.80;63.20
10233;DHT22;5161;48.174;11.756;2023-05-29T08:22:02;18.80;63.20
10233;DHT22;5161;48.174;11.756;2023-05-29T08:24:28;18.80;63.10
10233;DHT22;5161;48.174;11.756;2023-05-29T08:26:53;18.90;63.10
10233;DHT22;5161;48.174;11.756;2023-05-29T08:29:19;19.00;63.30
10233;DHT22;5161;48.174;11.756;2023-05-29T08:31:45;19.00;63.00
10233;DHT22;5161;48.174;11.756;2023-05-29T08:34:11;19.00;63.30
10233;DHT22;5161;48.174;11.756;2023-05-29T08:36:37;19.00;63.20
10233;DHT22;5161;48.174;11.756;2023-05-29T08:39:03;19.10;63.30
10233;DHT22;5161;48.174;11.756;2023-05-29T08:41:41;19.10;63.20
10233;DHT22;5161;48.174;11.756;2023-05-29T08:44:13;19.10;62.80
10233;DHT22;5161;48.174;11.756;2023-05-29T08:46:40;19.20;63.20
10233;DHT22;5161;48.174;11.756;2023-05-29T08:49:07;19.20;63.20
10233;DHT22;5161;48.174;11.756;2023-05-29T08:51:37;19.30;63.20
10233;DHT22;5161;48.174;11.756;2023-05-29T08:54:05;19.30;63.20
10233;DHT22;5161;48.174;11.756;2023-05-29T08:56:31;19.30;62.80
10233;DHT22;5161;48.174;11.756;2023-05-29T08:58:57;19.30;63.00
10233;DHT22;5161;48.174;11.756;2023-05-29T09:01:25;19.40;62.50
10233;DHT22;5161;48.174;11.756;2023-05-29T09:03:50;19.40;63.10
10233;DHT22;5161;48.174;11.756;2023-05-29T09:06:16;19.50;63.20
10233;DHT22;5161;48.174;11.756;2023-05-29T09:08:43;19.50;63.10
10233;DHT22;5161;48.174;11.756;2023-05-29T09:11:09;19.50;62.40
10233;DHT22;5161;48.174;11.756;2023-05-29T09:13:35;19.60;62.80
10233;DHT22;5161;48.174;11.756;2023-05-29T09:16:01;19.60;63.00
10233;DHT22;5161;48.174;11.756;2023-05-29T09:18:29;19.70;62.90
10233;DHT22;5161;48.174;11.756;2023-05-29T09:20:56;19.70;62.20
10233;DHT22;5161;48.174;11.756;2023-05-29T09:23:21;19.70;61.80
10233;DHT22;5161;48.174;11.756;2023-05-29T09:25:52;19.80;62.30
10233;DHT22;5161;48.174;11.756;2023-05-29T09:28:19;19.80;62.70
10233;DHT22;5161;48.174;11.756;2023-05-29T09:30:46;19.90;61.90
10233;DHT22;5161;48.174;11.756;2023-05-29T09:33:13;19.90;62.40
10233;DHT22;5161;48.174;11.756;2023-05-29T09:35:44;19.90;61.00
10233;DHT22;5161;48.174;11.756;2023-05-29T09:38:12;19.90;61.80
10233;DHT22;5161;48.174;11.756;2023-05-29T09:40:39;20.00;60.50
10233;DHT22;5161;48.174;11.756;2023-05-29T09:45:37;20.00;61.50
10233;DHT22;5161;48.174;11.756;2023-05-29T09:48:04;20.10;60.70
10233;DHT22;5161;48.174;11.756;2023-05-29T09:50:30;20.10;61.30
10233;DHT22;5161;48.174;11.756;2023-05-29T09:52:56;20.10;60.60
10233;DHT22;5161;48.174;11.756;2023-05-29T09:55:27;20.20;60.30
10233;DHT22;5161;48.174;11.756;2023-05-29T09:57:54;20.20;59.10
10233;DHT22;5161;48.174;11.756;2023-05-29T10:00:22;20.20;58.20
10233;DHT22;5161;48.174;11.756;2023-05-29T10:02:48;20.30;58.20
10233;DHT22;5161;48.174;11.756;2023-05-29T10:05:14;20.30;58.30
10233;DHT22;5161;48.174;11.756;2023-05-29T10:07:44;20.40;58.50
10233;DHT22;5161;48.174;11.756;2023-05-29T10:10:14;20.40;57.20
10233;DHT22;5161;48.174;11.756;2023-05-29T10:12:42;20.40;56.70
10233;DHT22;5161;48.174;11.756;2023-05-29T10:15:14;20.40;57.20
10233;DHT22;5161;48.174;11.756;2023-05-29T10:17:49;20.50;56.90
10233;DHT22;5161;48.174;11.756;2023-05-29T10:20:17;20.50;57.20
10233;DHT22;5161;48.174;11.756;2023-05-29T10:22:46;20.50;58.20
10233;DHT22;5161;48.174;11.756;2023-05-29T10:25:13;20.60;58.50
10233;DHT22;5161;48.174;11.756;2023-05-29T10:27:42;20.50;58.00
10233;DHT22;5161;48.174;11.756;2023-05-29T10:35:44;20.80;57.90
10233;DHT22;5161;48.174;11.756;2023-05-29T10:38:16;20.80;57.90
10233;DHT22;5161;48.174;11.756;2023-05-29T10:40:44;20.80;56.80
10233;DHT22;5161;48.174;11.756;2023-05-29T10:43:33;20.90;56.80
10233;DHT22;5161;48.174;11.756;2023-05-29T10:46:03;20.90;56.40
10233;DHT22;5161;48.174;11.756;2023-05-29T10:48:39;20.90;55.90
10233;DHT22;5161;48.174;11.756;2023-05-29T10:51:07;20.90;56.40
10233;DHT22;5161;48.174;11.756;2023-05-29T10:53:33;20.90;56.20
10233;DHT22;5161;48.174;11.756;2023-05-29T10:55:59;21.00;56.20
10233;DHT22;5161;48.174;11.756;2023-05-29T10:58:27;21.00;55.90
10233;DHT22;5161;48.174;11.756;2023-05-29T11:00:54;21.00;55.90
10233;DHT22;5161;48.174;11.756;2023-05-29T11:03:25;21.10;57.00
10233;DHT22;5161;48.174;11.756;2023-05-29T11:06:00;21.10;56.40
10233;DHT22;5161;48.174;11.756;2023-05-29T11:08:46;21.10;55.30
10233;DHT22;5161;48.174;11.756;2023-05-29T11:11:13;21.20;55.80
10233;DHT22;5161;48.174;11.756;2023-05-29T11:13:39;21.20;56.30
10233;DHT22;5161;48.174;11.756;2023-05-29T11:18:59;21.30;55.60
10233;DHT22;5161;48.174;11.756;2023-05-29T11:21:29;21.30;55.10
10233;DHT22;5161;48.174;11.756;2023-05-29T11:23:57;21.40;54.80
10233;DHT22;5161;48.174;11.756;2023-05-29T11:26:27;21.40;55.30
10233;DHT22;5161;48.174;11.756;2023-05-29T11:28:52;21.40;54.30
10233;DHT22;5161;48.174;11.756;2023-05-29T11:31:20;21.40;53.90
10233;DHT22;5161;48.174;11.756;2023-05-29T11:33:52;21.40;55.20
10233;DHT22;5161;48.174;11.756;2023-05-29T11:36:21;21.40;54.70
10233;DHT22;5161;48.174;11.756;2023-05-29T11:38:47;21.40;55.00
10233;DHT22;5161;48.174;11.756;2023-05-29T11:41:13;21.50;54.70
10233;DHT22;5161;48.174;11.756;2023-05-29T11:43:39;21.50;54.50
10233;DHT22;5161;48.174;11.756;2023-05-29T11:46:18;21.60;52.40
10233;DHT22;5161;48.174;11.756;2023-05-29T11:48:48;21.60;53.90
10233;DHT22;5161;48.174;11.756;2023-05-29T11:51:14;21.60;53.30
10233;DHT22;5161;48.174;11.756;2023-05-29T11:53:41;21.70;53.70
10233;DHT22;5161;48.174;11.756;2023-05-29T11:56:10;21.70;54.30
10233;DHT22;5161;48.174;11.756;2023-05-29T11:58:40;21.80;55.00
10233;DHT22;5161;48.174;11.756;2023-05-29T12:01:06;21.80;53.30
10233;DHT22;5161;48.174;11.756;2023-05-29T12:03:42;21.90;54.10
10233;DHT22;5161;48.174;11.756;2023-05-29T12:06:11;21.90;54.10
10233;DHT22;5161;48.174;11.756;2023-05-29T12:08:37;21.90;54.20
10233;DHT22;5161;48.174;11.756;2023-05-29T12:11:03;21.90;53.70
10233;DHT22;5161;48.174;11.756;2023-05-29T12:13:29;21.90;54.60
10233;DHT22;5161;48.174;11.756;2023-05-29T12:16:00;22.00;53.40
10233;DHT22;5161;48.174;11.756;2023-05-29T12:18:29;22.10;54.00
10233;DHT22;5161;48.174;11.756;2023-05-29T12:21:00;22.00;53.50
10233;DHT22;5161;48.174;11.756;2023-05-29T12:23:27;22.10;54.10
10233;DHT22;5161;48.174;11.756;2023-05-29T12:25:53;22.10;53.80
10233;DHT22;5161;48.174;11.756;2023-05-29T12:28:20;22.10;53.60
10233;DHT22;5161;48.174;11.756;2023-05-29T12:30:47;22.20;53.70
10233;DHT22;5161;48.174;11.756;2023-05-29T12:33:32;22.20;53.40
10233;DHT22;5161;48.174;11.756;2023-05-29T12:36:05;22.30;53.60
10233;DHT22;5161;48.174;11.756;2023-05-29T12:38:32;22.30;53.20
10233;DHT22;5161;48.174;11.756;2023-05-29T12:40:57;22.30;53.40
10233;DHT22;5161;48.174;11.756;2023-05-29T12:43:23;22.40;53.20
10233;DHT22;5161;48.174;11.756;2023-05-29T12:45:54;22.50;52.70
10233;DHT22;5161;48.174;11.756;2023-05-29T12:48:26;22.40;52.60
10233;DHT22;5161;48.174;11.756;2023-05-29T12:50:52;22.50;52.50
10233;DHT22;5161;48.174;11.756;2023-05-29T12:53:18;22.50;53.30
10233;DHT22;5161;48.174;11.756;2023-05-29T12:55:44;22.60;52.80
10233;DHT22;5161;48.174;11.756;2023-05-29T12:58:14;22.60;52.90
10233;DHT22;5161;48.174;11.756;2023-05-29T13:00:42;22.60;53.30
10233;DHT22;5161;48.174;11.756;2023-05-29T13:03:08;22.60;52.70
10233;DHT22;5161;48.174;11.756;2023-05-29T13:05:36;22.70;52.90
10233;DHT22;5161;48.174;11.756;2023-05-29T13:08:02;22.70;53.00
10233;DHT22;5161;48.174;11.756;2023-05-29T13:10:30;22.80;52.60
10233;DHT22;5161;48.174;11.756;2023-05-29T13:12:56;22.80;53.40
10233;DHT22;5161;48.174;11.756;2023-05-29T13:15:25;22.70;52.60
10233;DHT22;5161;48.174;11.756;2023-05-29T13:17:52;22.80;52.70
10233;DHT22;5161;48.174;11.756;2023-05-29T13:20:18;22.90;52.40
10233;DHT22;5161;48.174;11.756;2023-05-29T13:22:46;22.90;52.50
10233;DHT22;5161;48.174;11.756;2023-05-29T13:25:14;23.00;52.80
10233;DHT22;5161;48.174;11.756;2023-05-29T13:27:43;23.10;52.70
10233;DHT22;5161;48.174;11.756;2023-05-29T13:30:10;23.10;52.50
10233;DHT22;5161;48.174;11.756;2023-05-29T13:32:37;23.10;52.30
10233;DHT22;5161;48.174;11.756;2023-05-29T13:35:03;23.10;52.40
10233;DHT22;5161;48.174;11.756;2023-05-29T13:37:29;23.20;52.00
10233;DHT22;5161;48.174;11.756;2023-05-29T13:39:54;23.20;52.50
10233;DHT22;5161;48.174;11.756;2023-05-29T13:42:20;23.20;52.20
10233;DHT22;5161;48.174;11.756;2023-05-29T13:44:47;23.30;51.50
10233;DHT22;5161;48.174;11.756;2023-05-29T13:47:13;23.30;52.10
10233;DHT22;5161;48.174;11.756;2023-05-29T13:49:38;23.30;52.40
10233;DHT22;5161;48.174;11.756;2023-05-29T13:52:04;23.40;51.80
10233;DHT22;5161;48.174;11.756;2023-05-29T13:54:30;23.40;52.10
10233;DHT22;5161;48.174;11.756;2023-05-29T13:57:03;23.50;52.30
10233;DHT22;5161;48.174;11.756;2023-05-29T13:59:30;23.50;51.70
10233;DHT22;5161;48.174;11.756;2023-05-29T14:01:56;23.50;52.10
10233;DHT22;5161;48.174;11.756;2023-05-29T14:04:22;23.50;51.90
10233;DHT22;5161;48.174;11.756;2023-05-29T14:06:47;23.60;50.80
10233;DHT22;5161;48.174;11.756;2023-05-29T14:09:13;23.60;52.50
10233;DHT22;5161;48.174;11.756;2023-05-29T14:11:39;23.60;52.10
10233;DHT22;5161;48.174;11.756;2023-05-29T14:14:06;23.60;50.90
10233;DHT22;5161;48.174;11.756;2023-05-29T14:16:32;23.70;50.90
10233;DHT22;5161;48.174;11.756;2023-05-29T14:18:59;23.70;51.20
10233;DHT22;5161;48.174;11.756;2023-05-29T14:21:24;23.70;51.00
10233;DHT22;5161;48.174;11.756;2023-05-29T14:23:50;23.70;51.40
10233;DHT22;5161;48.174;11.756;2023-05-29T14:26:16;23.90;51.40
10233;DHT22;5161;48.174;11.756;2023-05-29T14:28:41;23.90;51.40
10233;DHT22;5161;48.174;11.756;2023-05-29T14:31:07;24.00;51.70
10233;DHT22;5161;48.174;11.756;2023-05-29T14:33:33;24.00;51.40
10233;DHT22;5161;48.174;11.756;2023-05-29T14:35:59;24.10;50.90
10233;DHT22;5161;48.174;11.756;2023-05-29T14:38:24;24.10;50.70
10233;DHT22;5161;48.174;11.756;2023-05-29T14:40:51;24.10;51.50
10233;DHT22;5161;48.174;11.756;2023-05-29T14:43:17;24.10;51.70
10233;DHT22;5161;48.174;11.756;2023-05-29T14:45:42;24.20;51.50
10233;DHT22;5161;48.174;11.756;2023-05-29T14:48:08;24.20;51.20
10233;DHT22;5161;48.174;11.756;2023-05-29T14:50:35;24.20;50.90
10233;DHT22;5161;48.174;11.756;2023-05-29T14:53:00;24.30;51.40
10233;DHT22;5161;48.174;11.756;2023-05-29T14:55:26;24.30;50.90
10233;DHT22;5161;48.174;11.756;2023-05-29T14:57:51;24.30;51.30
10233;DHT22;5161;48.174;11.756;2023-05-29T15:00:17;24.30;51.00
10233;DHT22;5161;48.174;11.756;2023-05-29T15:02:43;24.40;51.20
10233;DHT22;5161;48.174;11.756;2023-05-29T15:05:08;24.40;51.20
10233;DHT22;5161;48.174;11.756;2023-05-29T15:07:34;24.40;51.20
10233;DHT22;5161;48.174;11.756;2023-05-29T15:10:00;24.40;50.90
10233;DHT22;5161;48.174;11.756;2023-05-29T15:12:26;24.40;50.00
10233;DHT22;5161;48.174;11.756;2023-05-29T15:14:52;24.40;50.10
10233;DHT22;5161;48.174;11.756;2023-05-29T15:17:18;24.40;50.60
10233;DHT22;5161;48.174;11.756;2023-05-29T15:19:44;24.40;50.60
10233;DHT22;5161;48.174;11.756;2023-05-29T15:22:09;24.40;50.90
10233;DHT22;5161;48.174;11.756;2023-05-29T15:24:35;24.50;51.40
10233;DHT22;5161;48.174;11.756;2023-05-29T15:27:01;24.50;51.00
10233;DHT22;5161;48.174;11.756;2023-05-29T15:29:33;24.50;51.30
10233;DHT22;5161;48.174;11.756;2023-05-29T15:32:00;24.50;51.10
10233;DHT22;5161;48.174;11.756;2023-05-29T15:34:26;24.60;50.60
10233;DHT22;5161;48.174;11.756;2023-05-29T15:36:52;24.60;51.40
10233;DHT22;5161;48.174;11.756;2023-05-29T15:39:17;24.60;51.20
10233;DHT22;5161;48.174;11.756;2023-05-29T15:41:43;24.60;51.10
10233;DHT22;5161;48.174;11.756;2023-05-29T15:44:08;24.60;51.10